Flight Track Log - Related Links

Times and Time Zones

All times are in EDT time to prevent confusion due to time zone crossing. See the JAL405 flight status page for this flight to view local times or setup timezone preferences in your user account.

Time Position Orientation Groundspeed Altitude Reporting Facility
EDT Latitude Longitude Course Direction KTS MPH feet Rate Location/Type
Sat 10:46:27 PM 35.7920 140.3560 329° Northwest 209 241 1,100  Level FlightAware ADS-B
Sat 10:46:57 PM 35.8170 140.3370 328° Northwest 206 237 2,500 2,509 Climbing FlightAware ADS-B
Sat 10:47:22 PM 35.8390 140.3210 329° Northwest 210 242 3,400 1,800 Climbing FlightAware ADS-B
Sat 10:47:37 PM 35.8530 140.3120 332° Northwest 229 264 3,700 1,467 Climbing FlightAware ADS-B
Sat 10:48:07 PM 35.8830 140.2900 329° Northwest 264 304 4,500 2,073 Climbing FlightAware ADS-B
Sat 10:48:32 PM 35.9100 140.2700 329° Northwest 265 305 5,600 1,745 Climbing FlightAware ADS-B
Sat 10:49:02 PM 35.9420 140.2470 330° Northwest 262 302 6,100 1,000 Climbing FlightAware ADS-B
Sat 10:49:32 PM 35.9750 140.2230 330° Northwest 263 303 6,600 873 Climbing FlightAware ADS-B
Sat 10:49:57 PM 36.0020 140.2030 329° Northwest 264 304 6,900 327 Climbing FlightAware ADS-B
Sat 10:50:27 PM 36.0340 140.1800 330° Northwest 264 304 6,900  Level FlightAware ADS-B
Sat 10:50:57 PM 36.0630 140.1490 319° Northwest 264 304 6,900  Level FlightAware ADS-B
Sat 10:51:22 PM 36.0840 140.1200 312° West 275 316 6,900  Level FlightAware ADS-B
Sat 10:51:52 PM 36.1100 140.0850 313° West 278 320 6,900  Level FlightAware ADS-B
Sat 10:52:17 PM 36.1310 140.0560 312° West 275 316 6,900  Level FlightAware ADS-B
Sat 10:52:47 PM 36.1570 140.0200 312° West 277 319 6,900  Level FlightAware ADS-B
Sat 10:53:12 PM 36.1790 139.9900 312° West 278 320 6,900 436 Level FlightAware ADS-B
Sat 10:53:42 PM 36.2030 139.9570 312° West 277 319 7,300 1,309 Climbing FlightAware ADS-B
Sat 10:54:07 PM 36.2290 139.9230 313° West 276 318 8,100 1,800 Climbing FlightAware ADS-B
Sat 10:54:22 PM 36.2380 139.9090 309° West 285 328 8,500 1,867 Climbing FlightAware ADS-B
Sat 10:54:52 PM 36.2650 139.8720 312° West 279 321 9,500 1,714 Climbing FlightAware ADS-B
Sat 10:55:32 PM 36.3020 139.8220 313° West 302 348 10,500 1,341 Climbing FlightAware ADS-B
Sat 10:56:17 PM 36.3520 139.7540 312° West 351 404 11,400 1,553 Climbing FlightAware ADS-B
Sat 10:56:57 PM 36.4020 139.6980 318° Northwest 370 426 12,700 1,800 Climbing FlightAware ADS-B
Sat 10:57:37 PM 36.4670 139.6710 342° North 368 423 13,800 1,553 Climbing FlightAware ADS-B
Sat 10:58:22 PM 36.5400 139.6440 343° North 369 425 14,900 1,412 Climbing FlightAware ADS-B
Sat 10:59:02 PM 36.6110 139.6190 344° North 383 441 15,800 1,200 Climbing FlightAware ADS-B
Sat 10:59:47 PM 36.6860 139.5910 343° North 374 430 16,600 1,050 Climbing FlightAware ADS-B
Sat 11:00:22 PM 36.7470 139.5690 344° North 386 444 17,200 960 Climbing FlightAware ADS-B
Sat 11:01:02 PM 36.8140 139.5440 343° North 384 442 17,800 947 Climbing FlightAware ADS-B
Sat 11:01:57 PM 36.9070 139.5090 343° North 390 449 18,700 1,140 Climbing FlightAware ADS-B
Sat 11:02:42 PM 36.9900 139.4790 344° North 401 461 19,700 1,644 Climbing FlightAware ADS-B
Sat 11:04:12 PM 37.1460 139.4060 340° North 425 489 22,400 1,782 Climbing FlightAware ADS-B
Sat 11:05:27 PM 37.2720 139.3140 330° Northwest 432 497 24,600 1,738 Climbing FlightAware ADS-B
Sat 11:06:37 PM 37.4000 139.2200 330° Northwest 450 518 26,600 1,629 Climbing FlightAware ADS-B
Sat 11:07:47 PM 37.5190 139.1320 330° Northwest 448 516 28,400 1,252 Climbing FlightAware ADS-B
Sat 11:08:32 PM 37.6130 139.0630 330° Northwest 461 531 29,000 450 Climbing FlightAware ADS-B
Sat 11:09:07 PM 37.6760 139.0170 330° Northwest 451 519 29,000  Level FlightAware ADS-B
Sat 11:09:52 PM 37.7580 138.9560 330° Northwest 451 519 29,000  Level FlightAware ADS-B
Sat 11:10:37 PM 37.8400 138.8940 329° Northwest 453 521 29,000  Level FlightAware ADS-B
Sat 11:11:12 PM 37.9020 138.8480 330° Northwest 453 521 29,000  Level FlightAware ADS-B
Sat 11:11:52 PM 37.9750 138.7940 330° Northwest 453 521 29,000 114 Level FlightAware ADS-B
Sat 11:12:57 PM 38.0970 138.7020 329° Northwest 466 536 29,200 971 Climbing FlightAware ADS-B
Sat 11:13:37 PM 38.1690 138.6490 330° Northwest 457 526 30,700 2,025 Climbing FlightAware ADS-B
Sat 11:14:17 PM 38.2440 138.5920 329° Northwest 455 524 31,900 918 Climbing FlightAware ADS-B
Sat 11:15:02 PM 38.3280 138.5290 330° Northwest 460 529 32,000 71 Climbing FlightAware ADS-B
Sat 11:15:42 PM 38.3970 138.4760 329° Northwest 460 529 32,000  Level FlightAware ADS-B
Sat 11:16:27 PM 38.4840 138.4100 329° Northwest 455 524 32,000  Level FlightAware ADS-B
Sat 11:17:02 PM 38.5440 138.3650 330° Northwest 456 525 32,000  Level FlightAware ADS-B
Sat 11:17:47 PM 38.6310 138.2980 329° Northwest 464 534 32,000  Level FlightAware ADS-B
Sat 11:18:32 PM 38.7120 138.2530 337° Northwest 467 537 32,000  Level FlightAware ADS-B
Sat 11:18:57 PM 38.7710 138.2450 354° North 472 543 32,000  Level FlightAware ADS-B
Sat 11:19:52 PM 38.8900 138.2450 360° North 475 547 32,000  Level FlightAware ADS-B
Sat 11:20:22 PM 38.9560 138.2460 North 475 547 32,000  Level FlightAware ADS-B
Sat 11:21:07 PM 39.0580 138.2460 360° North 468 539 32,000  Level FlightAware ADS-B
Sat 11:21:37 PM 39.1240 138.2460 360° North 468 539 32,000  Level FlightAware ADS-B
Sat 11:22:12 PM 39.2040 138.2460 360° North 470 541 32,000  Level FlightAware ADS-B
Sat 11:22:57 PM 39.3020 138.2460 360° North 470 541 32,000  Level FlightAware ADS-B
Sat 11:23:42 PM 39.4010 138.2460 360° North 469 540 32,000  Level FlightAware ADS-B
Sat 11:24:22 PM 39.4910 138.2460 360° North 470 541 32,000  Level FlightAware ADS-B
Sat 11:25:07 PM 39.5890 138.2460 360° North 470 541 32,000  Level FlightAware ADS-B
Sat 11:25:47 PM 39.6760 138.2460 360° North 479 551 32,000  Level FlightAware ADS-B
Sat 11:26:32 PM 39.7770 138.2460 360° North 470 541 32,000  Level FlightAware ADS-B
Sat 11:27:02 PM 39.8440 138.2460 360° North 479 551 32,000  Level FlightAware ADS-B
Sat 11:27:47 PM 39.9430 138.2460 360° North 470 541 32,000  Level FlightAware ADS-B
Sat 11:28:37 PM 40.0510 138.2460 360° North 467 537 32,000  Level FlightAware ADS-B
Sat 11:29:17 PM 40.1410 138.2460 360° North 464 534 32,000  Level FlightAware ADS-B
Sat 11:29:57 PM 40.2250 138.2460 360° North 464 534 32,000  Level FlightAware ADS-B
Sat 11:30:42 PM 40.3280 138.2460 360° North 464 534 32,000  Level FlightAware ADS-B
Sat 11:31:22 PM 40.4150 138.2460 360° North 468 539 32,000  Level FlightAware ADS-B
Sat 11:32:07 PM 40.5130 138.2460 360° North 468 539 32,000  Level FlightAware ADS-B
Sat 11:32:47 PM 40.6020 138.2460 360° North 465 535 32,000  Level FlightAware ADS-B
Sat 11:33:27 PM 40.6840 138.2460 360° North 465 535 32,000  Level FlightAware ADS-B
Sat 11:34:12 PM 40.7890 138.2460 360° North 467 537 32,000  Level FlightAware ADS-B
Sat 11:35:07 PM 40.9050 138.2460 360° North 467 537 32,000  Level FlightAware ADS-B
Sat 11:35:52 PM 41.0090 138.2460 360° North 467 537 32,000  Level FlightAware ADS-B
Sat 11:36:32 PM 41.0930 138.2460 360° North 468 539 32,000  Level FlightAware ADS-B
Sat 11:37:12 PM 41.1840 138.2460 360° North 467 537 32,000  Level FlightAware ADS-B
Sat 11:37:57 PM 41.2850 138.2460 360° North 466 536 32,000  Level FlightAware ADS-B
Sat 11:38:37 PM 41.3650 138.2460 360° North 466 536 32,000  Level FlightAware ADS-B
Sat 11:39:17 PM 41.4570 138.2460 360° North 465 535 32,000  Level FlightAware ADS-B
Sat 11:40:02 PM 41.5550 138.2460 360° North 464 534 32,000  Level FlightAware ADS-B
Sat 11:40:37 PM 41.6330 138.2460 360° North 464 534 32,000  Level FlightAware ADS-B
Sat 11:42:17 PM 41.8410 138.2460 360° North 463 533 32,000  Level FlightAware ADS-B
Sat 11:43:32 PM 42.0100 138.2460 360° North 470 541 32,000  Level FlightAware ADS-B
Sat 11:44:27 PM 42.1260 138.2460 360° North 469 540 32,000  Level FlightAware ADS-B
Sat 11:45:12 PM 42.2280 138.2460 360° North 469 540 32,000  Level FlightAware ADS-B
Sat 11:45:52 PM 42.3180 138.2460 360° North 468 539 32,000  Level FlightAware ADS-B
Sat 11:46:32 PM 42.3980 138.2460 360° North 468 539 32,000  Level FlightAware ADS-B
Sat 11:47:22 PM 42.5110 138.2460 360° North 468 539 32,000  Level FlightAware ADS-B
Sat 11:48:12 PM 42.6010 138.2450 360° North 469 540 32,000  Level FlightAware ADS-B
Sat 11:48:52 PM 42.6750 138.2430 359° North 469 540 32,000  Level FlightAware ADS-B
Sat 11:49:32 PM 42.7490 138.2410 359° North 469 540 32,000  Level FlightAware ADS-B
Sat 11:50:12 PM 42.8220 138.2390 359° North 469 540 32,000  Level FlightAware ADS-B
Sat 11:50:52 PM 42.8960 138.2380 359° North 469 540 32,000  Level FlightAware ADS-B
Sat 11:51:42 PM 42.9880 138.2360 359° North 469 540 32,000  Level FlightAware ADS-B
Sat 11:52:22 PM 43.0620 138.2340 359° North 469 540 32,000  Level FlightAware ADS-B
Sat 11:53:02 PM 43.1360 138.2320 359° North 469 540 32,000  Level FlightAware ADS-B
Sat 11:53:42 PM 43.2100 138.2300 359° North 469 540 32,000  Level FlightAware ADS-B
Sat 11:53:52 PM 43.3530 138.2470 North 463 533 32,000  Level FlightAware ADS-B
Sat 11:54:37 PM 43.4370 138.2550 North 463 533 32,000  Level FlightAware ADS-B
Sat 11:55:27 PM 43.5280 138.2630 North 463 533 32,000  Level FlightAware ADS-B
Sat 11:56:22 PM 43.6740 138.2440 355° North 469 540 32,000  Level FlightAware ADS-B
Sat 11:56:57 PM 43.7470 138.2380 357° North 469 540 32,000  Level FlightAware ADS-B
Sat 11:57:47 PM 43.8400 138.2320 357° North 469 540 32,000  Level FlightAware ADS-B
Sat 11:58:27 PM 43.9130 138.2260 357° North 469 540 32,000  Level FlightAware ADS-B
Sat 11:59:07 PM 43.9870 138.2210 357° North 469 540 32,000  Level FlightAware ADS-B
Sat 11:59:47 PM 44.0610 138.2160 357° North 469 540 32,000  Level FlightAware ADS-B
Sun 12:00:27 AM 44.1340 138.2100 357° North 469 540 32,000  Level FlightAware ADS-B
Sun 12:01:17 AM 44.2260 138.2030 357° North 469 540 32,000  Level FlightAware ADS-B
Sun 12:01:57 AM 44.3000 138.1980 357° North 469 540 32,000  Level FlightAware ADS-B
Sun 12:02:37 AM 44.3740 138.1930 357° North 469 540 32,000  Level FlightAware ADS-B
Sun 12:03:17 AM 44.4470 138.1870 357° North 469 540 32,000  Level FlightAware ADS-B
Sun 12:03:57 AM 44.5210 138.1820 357° North 469 540 32,000  Level FlightAware ADS-B
Sun 12:04:47 AM 44.6130 138.1750 357° North 469 540 32,000  Level FlightAware ADS-B
Sun 12:05:27 AM 44.6870 138.1700 357° North 469 540 32,000  Level FlightAware ADS-B
Sun 12:05:57 AM 44.7420 138.1660 357° North 469 540 32,000  Level FlightAware ADS-B
Sun 12:08:00 AM 44.9711 137.9944 332° Northwest  Level Estimated
Sun 12:09:00 AM 45.0828 137.9101 332° Northwest  Level Estimated
Sun 12:10:00 AM 45.1944 137.8256 332° Northwest  Level Estimated
Sun 12:11:00 AM 45.3060 137.7407 332° Northwest  Level Estimated
Sun 12:12:00 AM 45.4176 137.6553 332° Northwest  Level Estimated
Sun 12:13:00 AM 45.5292 137.5696 332° Northwest  Level Estimated
Sun 12:14:00 AM 45.6408 137.4836 332° Northwest  Level Estimated
Sun 12:15:00 AM 45.7522 137.3972 332° Northwest  Level Estimated
Sun 12:16:00 AM 45.8636 137.3105 332° Northwest  Level Estimated
Sun 12:16:22 AM 46.2500 138.0860 332° Northwest 466 536 32,000  Level FlightAware ADS-B
Sun 12:17:07 AM 46.3350 138.0810 358° North 466 536 32,000  Level FlightAware ADS-B
Sun 12:17:47 AM 46.4310 138.0740 357° North 465 535 32,000  Level FlightAware ADS-B
Sun 12:18:22 AM 46.4990 138.0670 356° North 463 533 32,000  Level FlightAware ADS-B
Sun 12:19:07 AM 46.5870 138.0360 346° North 460 529 32,000  Level FlightAware ADS-B
Sun 12:19:52 AM 46.6800 137.9910 342° North 460 529 32,000  Level FlightAware ADS-B
Sun 12:20:27 AM 46.7460 137.9590 342° North 460 529 32,000  Level FlightAware ADS-B
Sun 12:21:17 AM 46.8460 137.9100 341° North 460 529 32,000  Level FlightAware ADS-B
Sun 12:22:02 AM 46.9400 137.8630 341° North 460 529 32,000  Level FlightAware ADS-B
Sun 12:22:42 AM 47.0180 137.8250 342° North 460 529 32,000  Level FlightAware ADS-B
Sun 12:23:22 AM 47.1050 137.7830 342° North 458 527 32,000  Level FlightAware ADS-B
Sun 12:24:02 AM 47.1820 137.7440 341° North 460 529 32,000  Level FlightAware ADS-B
Sun 12:24:42 AM 47.2770 137.6970 341° North 461 531 32,000  Level FlightAware ADS-B
Sun 12:25:27 AM 47.3550 137.6580 341° North 463 533 32,000  Level FlightAware ADS-B
Sun 12:26:12 AM 47.4420 137.6150 342° North 464 534 32,000  Level FlightAware ADS-B
Sun 12:26:52 AM 47.5190 137.5760 341° North 464 534 32,000  Level FlightAware ADS-B
Sun 12:27:37 AM 47.6140 137.5280 341° North 463 533 32,000  Level FlightAware ADS-B
Sun 12:28:17 AM 47.7020 137.4840 341° North 464 534 32,000  Level FlightAware ADS-B
Sun 12:28:57 AM 47.7800 137.4440 341° North 463 533 32,000  Level FlightAware ADS-B
Sun 12:29:57 AM 47.8940 137.3860 341° North 463 533 32,000  Level FlightAware ADS-B
Sun 12:30:37 AM 47.9840 137.3400 341° North 463 533 32,000  Level FlightAware ADS-B
Sun 12:31:22 AM 48.0670 137.2980 341° North 464 534 32,000  Level FlightAware ADS-B
Sun 12:32:07 AM 48.1650 137.2480 341° North 465 535 32,000  Level FlightAware ADS-B
Sun 12:32:47 AM 48.2490 137.2040 341° North 466 536 32,000  Level FlightAware ADS-B
Sun 12:33:27 AM 48.3280 137.1630 341° North 466 536 32,000  Level FlightAware ADS-B
Sun 12:34:12 AM 48.4180 137.1170 341° North 465 535 32,000  Level FlightAware ADS-B
Sun 12:34:52 AM 48.5050 137.0710 341° North 465 535 32,000  Level FlightAware ADS-B
Sun 12:35:37 AM 48.5980 137.0230 341° North 464 534 32,000  Level FlightAware ADS-B
Sun 12:36:12 AM 48.6680 136.9860 341° North 464 534 32,000  Level FlightAware ADS-B
Sun 12:36:57 AM 48.7590 136.9390 341° North 463 533 32,000  Level FlightAware ADS-B
Sun 12:37:37 AM 48.8280 136.9020 341° North 463 533 32,000  Level FlightAware ADS-B
Sun 12:38:27 AM 48.9320 136.8350 337° Northwest 464 534 32,000  Level FlightAware ADS-B
Sun 12:39:22 AM 49.0390 136.7500 332° Northwest 465 535 32,000  Level FlightAware ADS-B
Sun 12:40:07 AM 49.1320 136.6740 332° Northwest 467 537 32,000  Level FlightAware ADS-B
Sun 12:41:12 AM 49.2500 136.5750 331° Northwest 466 536 32,000  Level FlightAware ADS-B
Sun 12:41:42 AM 49.3000 136.5340 332° Northwest 468 539 32,000  Level FlightAware ADS-B
Sun 12:42:32 AM 49.3970 136.4530 331° Northwest 467 537 32,000  Level FlightAware ADS-B
Sun 12:43:17 AM 49.4880 136.3770 332° Northwest 469 540 32,000  Level FlightAware ADS-B
Sun 12:43:52 AM 49.5540 136.3220 332° Northwest 469 540 32,000  Level FlightAware ADS-B
Sun 12:44:42 AM 49.6450 136.2450 331° Northwest 470 541 32,000  Level FlightAware ADS-B
Sun 12:45:22 AM 49.7240 136.1780 331° Northwest 469 540 32,000  Level FlightAware ADS-B
Sun 12:46:07 AM 49.8100 136.1060 332° Northwest 471 542 32,000  Level FlightAware ADS-B
Sun 12:46:47 AM 49.8850 136.0410 331° Northwest 471 542 32,000  Level FlightAware ADS-B
Sun 12:47:17 AM 49.9440 135.9910 331° Northwest 472 543 32,000  Level FlightAware ADS-B
Sun 12:48:12 AM 50.0480 135.9020 331° Northwest 474 545 32,000  Level FlightAware ADS-B
Sun 12:48:52 AM 50.1250 135.8350 331° Northwest 475 547 32,000  Level FlightAware ADS-B
Sun 12:49:32 AM 50.2030 135.7680 331° Northwest 475 547 32,000  Level FlightAware ADS-B
Sun 12:50:12 AM 50.2820 135.6990 331° Northwest 475 547 32,000  Level FlightAware ADS-B
Sun 12:50:57 AM 50.3610 135.6300 331° Northwest 477 549 32,000  Level FlightAware ADS-B
Sun 12:51:37 AM 50.4440 135.5570 331° Northwest 478 550 32,000  Level FlightAware ADS-B
Sun 12:52:22 AM 50.5340 135.4780 331° Northwest 476 548 32,000  Level FlightAware ADS-B
Sun 12:52:57 AM 50.6030 135.4170 331° Northwest 477 549 32,000  Level FlightAware ADS-B
Sun 12:53:42 AM 50.7030 135.3290 331° Northwest 477 549 32,000  Level FlightAware ADS-B
Sun 12:54:17 AM 50.7690 135.2710 331° Northwest 477 549 32,000  Level FlightAware ADS-B
Sun 12:55:02 AM 50.8590 135.1900 330° Northwest 478 550 32,000  Level FlightAware ADS-B
Sun 12:55:47 AM 50.9450 135.1080 329° Northwest 480 552 32,000  Level FlightAware ADS-B
Sun 12:56:27 AM 51.0170 135.0360 328° Northwest 480 552 32,000  Level FlightAware ADS-B
Sun 12:57:17 AM 51.1140 134.9400 328° Northwest 480 552 32,000  Level FlightAware ADS-B
Sun 12:57:57 AM 51.1850 134.8690 328° Northwest 481 554 32,000  Level FlightAware ADS-B
Sun 12:58:37 AM 51.2610 134.7930 328° Northwest 482 555 32,000  Level FlightAware ADS-B
Sun 12:59:22 AM 51.3490 134.7050 328° Northwest 483 556 32,000  Level FlightAware ADS-B
Sun 01:00:12 AM 51.4420 134.6120 328° Northwest 483 556 32,000  Level FlightAware ADS-B
Sun 01:00:52 AM 51.5090 134.5440 328° Northwest 483 556 32,000  Level FlightAware ADS-B
Sun 01:01:42 AM 51.6110 134.4420 328° Northwest 483 556 32,000  Level FlightAware ADS-B
Sun 01:02:22 AM 51.6870 134.3640 328° Northwest 485 558 32,000  Level FlightAware ADS-B
Sun 01:03:17 AM 51.7650 134.2850 328° Northwest 487 560 32,000  Level FlightAware ADS-B
Sun 01:04:02 AM 51.8380 134.2080 327° Northwest 487 560 32,000  Level FlightAware ADS-B
Sun 01:04:42 AM 51.9030 134.1400 327° Northwest 487 560 32,000  Level FlightAware ADS-B
Sun 01:05:22 AM 51.9670 134.0720 327° Northwest 487 560 32,000  Level FlightAware ADS-B
Sun 01:06:02 AM 52.0310 134.0050 327° Northwest 487 560 32,000  Level FlightAware ADS-B
Sun 01:06:52 AM 52.1120 133.9200 327° Northwest 487 560 32,000  Level FlightAware ADS-B
Sun 01:07:32 AM 52.1760 133.8520 327° Northwest 487 560 32,000  Level FlightAware ADS-B
Sun 01:08:12 AM 52.2400 133.7840 327° Northwest 487 560 32,000  Level FlightAware ADS-B
Sun 01:08:52 AM 52.3040 133.7150 327° Northwest 487 560 32,000  Level FlightAware ADS-B
Sun 01:09:32 AM 52.3680 133.6470 327° Northwest 487 560 32,000  Level FlightAware ADS-B
Sun 01:10:22 AM 52.4490 133.5620 327° Northwest 487 560 32,000  Level FlightAware ADS-B
Sun 01:11:02 AM 52.5130 133.4930 327° Northwest 487 560 32,000  Level FlightAware ADS-B
Sun 01:11:42 AM 52.5770 133.4240 327° Northwest 487 560 32,000  Level FlightAware ADS-B
Sun 01:12:22 AM 52.6420 133.3560 328° Northwest 487 560 32,000  Level FlightAware ADS-B
Sun 01:13:02 AM 52.7060 133.2870 327° Northwest 487 560 32,000 Level FlightAware ADS-B
Sun 01:15:00 AM 52.9171 133.0688 328° Northwest  Level Estimated
Sun 01:16:00 AM 53.0242 132.9570 328° Northwest  Level Estimated
Sun 01:17:00 AM 53.1315 132.8445 328° Northwest  Level Estimated
Sun 01:18:00 AM 53.2386 132.7314 328° Northwest  Level Estimated
Sun 01:19:00 AM 53.3456 132.6178 328° Northwest  Level Estimated
Sun 01:20:00 AM 53.4525 132.5036 328° Northwest  Level Estimated
Sun 01:21:00 AM 53.5592 132.3888 327° Northwest  Level Estimated
Sun 01:22:00 AM 53.6659 132.2734 327° Northwest  Level Estimated
Sun 01:23:00 AM 53.7725 132.1575 327° Northwest  Level Estimated
Sun 01:24:00 AM 53.8789 132.0409 327° Northwest  Level Estimated
Sun 01:25:00 AM 53.9853 131.9238 327° Northwest  Level Estimated
Sun 01:26:00 AM 54.0915 131.8061 327° Northwest  Level Estimated
Sun 01:27:00 AM 54.1976 131.6877 327° Northwest  Level Estimated
Sun 01:28:00 AM 54.3036 131.5688 327° Northwest  Level Estimated
Sun 01:29:00 AM 54.4095 131.4492 327° Northwest  Level Estimated
Sun 01:30:00 AM 54.5152 131.3290 327° Northwest  Level Estimated
Sun 01:31:00 AM 54.6208 131.2082 327° Northwest  Level Estimated
Sun 01:32:00 AM 54.7263 131.0868 326° Northwest  Level Estimated
Sun 01:33:00 AM 54.8317 130.9648 326° Northwest  Level Estimated
Sun 01:34:00 AM 54.9370 130.8421 326° Northwest  Level Estimated
Sun 01:35:00 AM 55.0421 130.7187 326° Northwest  Level Estimated
Sun 01:36:00 AM 55.1473 130.5945 326° Northwest  Level Estimated
Sun 01:37:00 AM 55.2523 130.4697 326° Northwest  Level Estimated
Sun 01:38:00 AM 55.3573 130.3442 326° Northwest  Level Estimated
Sun 01:39:00 AM 55.4621 130.2180 326° Northwest  Level Estimated
Sun 01:40:00 AM 55.5667 130.0912 326° Northwest  Level Estimated
Sun 01:41:00 AM 55.6712 129.9637 325° Northwest  Level Estimated
Sun 01:42:00 AM 55.7756 129.8355 325° Northwest  Level Estimated
Sun 01:43:00 AM 55.8799 129.7066 325° Northwest  Level Estimated
Sun 01:44:00 AM 55.9840 129.5771 325° Northwest  Level Estimated
Sun 01:45:00 AM 56.0880 129.4468 325° Northwest  Level Estimated
Sun 01:46:00 AM 56.1919 129.3158 325° Northwest  Level Estimated
Sun 01:47:00 AM 56.2956 129.1841 325° Northwest  Level Estimated
Sun 01:48:00 AM 56.3991 129.0517 325° Northwest  Level Estimated
Sun 01:49:00 AM 56.5026 128.9186 325° Northwest  Level Estimated
Sun 01:50:00 AM 56.6059 128.7848 325° Northwest  Level Estimated
Sun 01:51:00 AM 56.7090 128.6502 324° Northwest  Level Estimated
Sun 01:52:00 AM 56.8120 128.5148 324° Northwest  Level Estimated
Sun 01:53:00 AM 56.9150 128.3786 324° Northwest  Level Estimated
Sun 01:54:00 AM 57.0178 128.2416 324° Northwest  Level Estimated
Sun 01:55:00 AM 57.1205 128.1038 324° Northwest  Level Estimated
Sun 01:56:00 AM 57.2231 127.9652 324° Northwest  Level Estimated
Sun 01:57:00 AM 57.3255 127.8259 324° Northwest  Level Estimated
Sun 01:58:00 AM 57.4277 127.6858 324° Northwest  Level Estimated
Sun 01:59:00 AM 57.5298 127.5449 323° Northwest  Level Estimated
Sun 02:00:00 AM 57.6317 127.4033 323° Northwest  Level Estimated
Sun 02:01:00 AM 57.7335 127.2608 323° Northwest  Level Estimated
Sun 02:02:00 AM 57.8351 127.1175 323° Northwest  Level Estimated
Sun 02:03:00 AM 57.9365 126.9734 323° Northwest  Level Estimated
Sun 02:04:00 AM 58.0378 126.8285 323° Northwest  Level Estimated
Sun 02:05:00 AM 58.1389 126.6828 323° Northwest  Level Estimated
Sun 02:06:00 AM 58.2398 126.5363 323° Northwest  Level Estimated
Sun 02:07:00 AM 58.3406 126.3889 323° Northwest  Level Estimated
Sun 02:08:00 AM 58.4412 126.2406 322° Northwest  Level Estimated
Sun 02:09:00 AM 58.5416 126.0916 322° Northwest  Level Estimated
Sun 02:10:00 AM 58.6419 125.9416 322° Northwest  Level Estimated
Sun 02:11:00 AM 58.7420 125.7908 322° Northwest  Level Estimated
Sun 02:12:00 AM 58.8419 125.6392 322° Northwest  Level Estimated
Sun 02:13:00 AM 58.9416 125.4866 322° Northwest  Level Estimated
Sun 02:14:00 AM 59.0412 125.3332 322° Northwest  Level Estimated
Sun 02:15:00 AM 59.1405 125.1789 321° Northwest  Level Estimated
Sun 02:16:00 AM 59.2397 125.0237 321° Northwest  Level Estimated
Sun 02:17:00 AM 59.3387 124.8676 321° Northwest  Level Estimated
Sun 02:18:00 AM 59.4375 124.7105 321° Northwest  Level Estimated
Sun 02:19:00 AM 59.5361 124.5526 321° Northwest  Level Estimated
Sun 02:20:00 AM 59.6345 124.3937 321° Northwest  Level Estimated
Sun 02:21:00 AM 59.7328 124.2339 321° Northwest  Level Estimated
Sun 02:22:00 AM 59.8308 124.0731 321° Northwest  Level Estimated
Sun 02:23:00 AM 59.9287 123.9114 320° Northwest  Level Estimated
Sun 02:24:00 AM 60.0263 123.7488 320° Northwest  Level Estimated
Sun 02:25:00 AM 60.1237 123.5852 320° Northwest  Level Estimated
Sun 02:26:00 AM 60.2210 123.4206 320° Northwest  Level Estimated
Sun 02:27:00 AM 60.3180 123.2550 320° Northwest  Level Estimated
Sun 02:28:00 AM 60.4148 123.0885 320° Northwest  Level Estimated
Sun 02:29:00 AM 60.5115 122.9209 320° Northwest  Level Estimated
Sun 02:30:00 AM 60.6079 122.7524 319° Northwest  Level Estimated
Sun 02:31:00 AM 60.7041 122.5828 319° Northwest  Level Estimated
Sun 02:32:00 AM 60.8000 122.4123 319° Northwest  Level Estimated
Sun 02:33:00 AM 60.8958 122.2407 319° Northwest  Level Estimated
Sun 02:34:00 AM 60.9913 122.0680 319° Northwest  Level Estimated
Sun 02:35:00 AM 61.0867 121.8944 319° Northwest  Level Estimated
Sun 02:36:00 AM 61.1818 121.7197 319° Northwest  Level Estimated
Sun 02:37:00 AM 61.2766 121.5439 318° Northwest  Level Estimated
Sun 02:38:00 AM 61.3713 121.3670 318° Northwest  Level Estimated
Sun 02:39:00 AM 61.4657 121.1891 318° Northwest  Level Estimated
Sun 02:40:00 AM 61.5598 121.0101 318° Northwest  Level Estimated
Sun 02:41:00 AM 61.6538 120.8301 318° Northwest  Level Estimated
Sun 02:42:00 AM 61.7475 120.6489 318° Northwest  Level Estimated
Sun 02:43:00 AM 61.8409 120.4666 317° Northwest  Level Estimated
Sun 02:44:00 AM 61.9342 120.2832 317° Northwest  Level Estimated
Sun 02:45:00 AM 62.0271 120.0987 317° Northwest  Level Estimated
Sun 02:46:00 AM 62.1199 119.9131 317° Northwest  Level Estimated
Sun 02:47:00 AM 62.2123 119.7263 317° Northwest  Level Estimated
Sun 02:48:00 AM 62.3045 119.5384 317° Northwest  Level Estimated
Sun 02:49:00 AM 62.3965 119.3493 316° Northwest  Level Estimated
Sun 02:50:00 AM 62.4882 119.1590 316° Northwest  Level Estimated
Sun 02:51:00 AM 62.5797 118.9676 316° Northwest  Level Estimated
Sun 02:52:00 AM 62.6709 118.7750 316° Northwest  Level Estimated
Sun 02:53:00 AM 62.7618 118.5813 316° Northwest  Level Estimated
Sun 02:54:00 AM 62.8524 118.3863 316° Northwest  Level Estimated
Sun 02:55:00 AM 62.9428 118.1901 315° West  Level Estimated
Sun 02:56:00 AM 63.0329 117.9927 315° West  Level Estimated
Sun 02:57:00 AM 63.1227 117.7941 315° West  Level Estimated
Sun 02:58:00 AM 63.2123 117.5942 315° West  Level Estimated
Sun 02:59:00 AM 63.3016 117.3932 315° West  Level Estimated
Sun 03:00:00 AM 63.3905 117.1908 315° West  Level Estimated
Sun 03:01:00 AM 63.4793 116.9872 314° West  Level Estimated
Sun 03:02:00 AM 63.5676 116.7824 314° West  Level Estimated
Sun 03:03:00 AM 63.6558 116.5762 314° West  Level Estimated
Sun 03:04:00 AM 63.7436 116.3688 314° West  Level Estimated
Sun 03:05:00 AM 63.8311 116.1601 314° West  Level Estimated
Sun 03:06:00 AM 63.9183 115.9501 313° West  Level Estimated
Sun 03:07:00 AM 64.0052 115.7388 313° West  Level Estimated
Sun 03:08:00 AM 64.0918 115.5262 313° West  Level Estimated
Sun 03:09:00 AM 64.1781 115.3122 313° West  Level Estimated
Sun 03:10:00 AM 64.2641 115.0969 313° West  Level Estimated
Sun 03:11:00 AM 64.3497 114.8803 312° West  Level Estimated
Sun 03:12:00 AM 64.4350 114.6623 312° West  Level Estimated
Sun 03:13:00 AM 64.5200 114.4430 312° West  Level Estimated
Sun 03:14:00 AM 64.6047 114.2223 312° West  Level Estimated
Sun 03:15:00 AM 64.6891 114.0002 312° West  Level Estimated
Sun 03:16:00 AM 64.7731 113.7767 311° West  Level Estimated
Sun 03:17:00 AM 64.8567 113.5519 311° West  Level Estimated
Sun 03:18:00 AM 64.9401 113.3256 311° West  Level Estimated
Sun 03:19:00 AM 65.0231 113.0980 311° West  Level Estimated
Sun 03:20:00 AM 65.1057 112.8689 311° West  Level Estimated
Sun 03:21:00 AM 65.1880 112.6384 310° West  Level Estimated
Sun 03:22:00 AM 65.2699 112.4064 310° West  Level Estimated
Sun 03:23:00 AM 65.3515 112.1730 310° West  Level Estimated
Sun 03:24:00 AM 65.4327 111.9382 310° West  Level Estimated
Sun 03:25:00 AM 65.5135 111.7019 310° West  Level Estimated
Sun 03:26:00 AM 65.5940 111.4642 309° West  Level Estimated
Sun 03:27:00 AM 65.6741 111.2249 309° West  Level Estimated
Sun 03:28:00 AM 65.7538 110.9842 309° West  Level Estimated
Sun 03:29:00 AM 65.8332 110.7420 309° West  Level Estimated
Sun 03:30:00 AM 65.9121 110.4983 309° West  Level Estimated
Sun 03:31:00 AM 65.9907 110.2531 308° West  Level Estimated
Sun 03:32:00 AM 66.0689 110.0064 308° West  Level Estimated
Sun 03:33:00 AM 66.1467 109.7582 308° West  Level Estimated
Sun 03:34:00 AM 66.2240 109.5085 308° West  Level Estimated
Sun 03:35:00 AM 66.3010 109.2572 307° West  Level Estimated
Sun 03:36:00 AM 66.3776 109.0043 307° West  Level Estimated
Sun 03:37:00 AM 66.4537 108.7500 307° West  Level Estimated
Sun 03:38:00 AM 66.5295 108.4941 307° West  Level Estimated
Sun 03:39:00 AM 66.6048 108.2366 306° West  Level Estimated
Sun 03:40:00 AM 66.6797 107.9775 306° West  Level Estimated
Sun 03:41:00 AM 66.7541 107.7169 306° West  Level Estimated
Sun 03:42:00 AM 66.8282 107.4547 306° West  Level Estimated
Sun 03:43:00 AM 66.9018 107.1910 306° West  Level Estimated
Sun 03:44:00 AM 66.9749 106.9256 305° West  Level Estimated
Sun 03:45:00 AM 67.0475 106.6590 305° West  Level Estimated
Sun 03:46:00 AM 67.1197 106.3909 305° West  Level Estimated
Sun 03:47:00 AM 67.1914 106.1211 305° West  Level Estimated
Sun 03:48:00 AM 67.2626 105.8497 304° West  Level Estimated
Sun 03:49:00 AM 67.3334 105.5768 304° West  Level Estimated
Sun 03:50:00 AM 67.4037 105.3022 304° West  Level Estimated
Sun 03:51:00 AM 67.4736 105.0260 304° West  Level Estimated
Sun 03:52:00 AM 67.5430 104.7481 303° West  Level Estimated
Sun 03:53:00 AM 67.6119 104.4687 303° West  Level Estimated
Sun 03:54:00 AM 67.6803 104.1876 303° West  Level Estimated
Sun 03:55:00 AM 67.7483 103.9044 302° West  Level Estimated
Sun 03:56:00 AM 67.8159 103.6197 302° West  Level Estimated
Sun 03:57:00 AM 67.8829 103.3332 302° West  Level Estimated
Sun 03:58:00 AM 67.9494 103.0452 302° West  Level Estimated
Sun 03:59:00 AM 68.0155 102.7554 301° West  Level Estimated
Sun 04:00:00 AM 68.0810 102.4641 301° West  Level Estimated
Sun 04:01:00 AM 68.1460 102.1710 301° West  Level Estimated
Sun 04:02:00 AM 68.2105 101.8764 301° West  Level Estimated
Sun 04:03:00 AM 68.2744 101.5800 300° West  Level Estimated
Sun 04:04:00 AM 68.3379 101.2820 300° West  Level Estimated
Sun 04:05:00 AM 68.4007 100.9824 300° West  Level Estimated
Sun 04:06:00 AM 68.4631 100.6810 300° West  Level Estimated
Sun 04:07:00 AM 68.5249 100.3781 299° West  Level Estimated
Sun 04:08:00 AM 68.5862 100.0734 299° West  Level Estimated
Sun 04:09:00 AM 68.6468 99.7676 299° West  Level Estimated
Sun 04:10:00 AM 68.7068 99.4601 298° West  Level Estimated
Sun 04:11:00 AM 68.7663 99.1509 298° West  Level Estimated
Sun 04:12:00 AM 68.8253 98.8401 298° West  Level Estimated
Sun 04:13:00 AM 68.8836 98.5277 298° West  Level Estimated
Sun 04:14:00 AM 68.9414 98.2136 297° West  Level Estimated
Sun 04:15:00 AM 68.9986 97.8978 297° West  Level Estimated
Sun 04:16:00 AM 69.0553 97.5805 297° West  Level Estimated
Sun 04:17:00 AM 69.1113 97.2615 296° West  Level Estimated
Sun 04:18:00 AM 69.1667 96.9408 296° West  Level Estimated
Sun 04:19:00 AM 69.2216 96.6186 296° West  Level Estimated
Sun 04:20:00 AM 69.2758 96.2947 295° West  Level Estimated
Sun 04:21:00 AM 69.3294 95.9692 295° West  Level Estimated
Sun 04:22:00 AM 69.3824 95.6421 295° West  Level Estimated
Sun 04:23:00 AM 69.4348 95.3134 295° West  Level Estimated
Sun 04:24:00 AM 69.4866 94.9830 294° West  Level Estimated
Sun 04:25:00 AM 69.5377 94.6512 294° West  Level Estimated
Sun 04:26:00 AM 69.5882 94.3177 294° West  Level Estimated
Sun 04:27:00 AM 69.6381 93.9826 293° West  Level Estimated
Sun 04:28:00 AM 69.6873 93.6460 293° West  Level Estimated
Sun 04:29:00 AM 69.7359 93.3078 293° West  Level Estimated
Sun 04:30:00 AM 69.7838 92.9681 292° West  Level Estimated
Sun 04:31:00 AM 69.8311 92.6268 292° West  Level Estimated
Sun 04:32:00 AM 69.8777 92.2841 292° West  Level Estimated
Sun 04:33:00 AM 69.9237 91.9398 291° West  Level Estimated
Sun 04:34:00 AM 69.9689 91.5940 291° West  Level Estimated
Sun 04:35:00 AM 70.0135 91.2467 291° West  Level Estimated
Sun 04:36:00 AM 70.0575 90.8979 290° West  Level Estimated
Sun 04:37:00 AM 70.1007 90.5477 290° West  Level Estimated
Sun 04:38:00 AM 70.1433 90.1960 290° West  Level Estimated
Sun 04:39:00 AM 70.1852 89.8423 289° West  Level Estimated
Sun 04:40:00 AM 70.2264 89.4873 289° West  Level Estimated
Sun 04:41:00 AM 70.2669 89.1308 289° West  Level Estimated
Sun 04:42:00 AM 70.3067 88.7729 288° West  Level Estimated
Sun 04:43:00 AM 70.3458 88.4137 288° West  Level Estimated
Sun 04:44:00 AM 70.3842 88.0530 288° West  Level Estimated
Sun 04:45:00 AM 70.4219 87.6911 287° West  Level Estimated
Sun 04:46:00 AM 70.4588 87.3278 287° West  Level Estimated
Sun 04:47:00 AM 70.4950 86.9632 287° West  Level Estimated
Sun 04:48:00 AM 70.5305 86.5973 286° West  Level Estimated
Sun 04:49:00 AM 70.5652 86.2301 286° West  Level Estimated
Sun 04:50:00 AM 70.5992 85.8617 286° West  Level Estimated
Sun 04:51:00 AM 70.6325 85.4921 285° West  Level Estimated
Sun 04:52:00 AM 70.6650 85.1212 285° West  Level Estimated
Sun 04:53:00 AM 70.6967 84.7492 285° West  Level Estimated
Sun 04:54:00 AM 70.7277 84.3760 284° West  Level Estimated
Sun 04:55:00 AM 70.7580 84.0017 284° West  Level Estimated
Sun 04:56:00 AM 70.7874 83.6262 284° West  Level Estimated
Sun 04:57:00 AM 70.8161 83.2496 283° West  Level Estimated
Sun 04:58:00 AM 70.8441 82.8720 283° West  Level Estimated
Sun 04:59:00 AM 70.8712 82.4933 283° West  Level Estimated
Sun 05:00:00 AM 70.8976 82.1136 282° West  Level Estimated
Sun 05:01:00 AM 70.9232 81.7329 282° West  Level Estimated
Sun 05:02:00 AM 70.9481 81.3513 281° West  Level Estimated
Sun 05:03:00 AM 70.9721 80.9687 281° West  Level Estimated
Sun 05:04:00 AM 70.9953 80.5852 281° West  Level Estimated
Sun 05:05:00 AM 71.0178 80.2008 280° West  Level Estimated
Sun 05:06:00 AM 71.0394 79.8155 280° West  Level Estimated
Sun 05:07:00 AM 71.0603 79.4294 280° West  Level Estimated
Sun 05:08:00 AM 71.0804 79.0425 279° West  Level Estimated
Sun 05:09:00 AM 71.0996 78.6548 279° West  Level Estimated
Sun 05:10:00 AM 71.1181 78.2663 279° West  Level Estimated
Sun 05:11:00 AM 71.1357 77.8772 278° West  Level Estimated
Sun 05:12:00 AM 71.1525 77.4874 278° West  Level Estimated
Sun 05:13:00 AM 71.1686 77.0969 277° West  Level Estimated
Sun 05:14:00 AM 71.1838 76.7057 277° West  Level Estimated
Sun 05:15:00 AM 71.1982 76.3140 277° West  Level Estimated
Sun 05:16:00 AM 71.2117 75.9218 276° West  Level Estimated
Sun 05:17:00 AM 71.2245 75.5290 276° West  Level Estimated
Sun 05:18:00 AM 71.2364 75.1357 276° West  Level Estimated
Sun 05:19:00 AM 71.2475 74.7419 275° West  Level Estimated
Sun 05:20:00 AM 71.2578 74.3477 275° West  Level Estimated
Sun 05:21:00 AM 71.2673 73.9531 274° West  Level Estimated
Sun 05:22:00 AM 71.2759 73.5576 274° West  Level Estimated
Sun 05:23:00 AM 71.2837 73.1617 274° West  Level Estimated
Sun 05:24:00 AM 71.2907 72.7655 273° West  Level Estimated
Sun 05:25:00 AM 71.2968 72.3690 273° West  Level Estimated
Sun 05:26:00 AM 71.3021 71.9724 273° West  Level Estimated
Sun 05:27:00 AM 71.3066 71.5755 272° West  Level Estimated
Sun 05:28:00 AM 71.3103 71.1784 272° West  Level Estimated
Sun 05:29:00 AM 71.3131 70.7813 271° West  Level Estimated
Sun 05:30:00 AM 71.3150 70.3840 271° West  Level Estimated
Sun 05:31:00 AM 71.3162 69.9866 271° West  Level Estimated
Sun 05:32:00 AM 71.3165 69.5893 270° West  Level Estimated
Sun 05:33:00 AM 71.3159 69.1925 270° West  Level Estimated
Sun 05:34:00 AM 71.3146 68.7957 270° West  Level Estimated
Sun 05:35:00 AM 71.3124 68.3990 269° West  Level Estimated
Sun 05:36:00 AM 71.3093 68.0025 269° West  Level Estimated
Sun 05:37:00 AM 71.3055 67.6060 268° West  Level Estimated
Sun 05:38:00 AM 71.3008 67.2098 268° West  Level Estimated
Sun 05:39:00 AM 71.2952 66.8138 268° West  Level Estimated
Sun 05:40:00 AM 71.2889 66.4180 267° West  Level Estimated
Sun 05:41:00 AM 71.2817 66.0224 267° West  Level Estimated
Sun 05:42:00 AM 71.2736 65.6272 267° West  Level Estimated
Sun 05:43:00 AM 71.2648 65.2324 266° West  Level Estimated
Sun 05:44:00 AM 71.2551 64.8379 266° West  Level Estimated
Sun 05:45:00 AM 71.2446 64.4438 265° West  Level Estimated
Sun 05:46:00 AM 71.2333 64.0501 265° West  Level Estimated
Sun 05:47:00 AM 71.2211 63.6570 265° West  Level Estimated
Sun 05:48:00 AM 71.2081 63.2643 264° West  Level Estimated
Sun 05:49:00 AM 71.1944 62.8722 264° West  Level Estimated
Sun 05:50:00 AM 71.1797 62.4807 264° West  Level Estimated
Sun 05:51:00 AM 71.1643 62.0897 263° West  Level Estimated
Sun 05:52:00 AM 71.1481 61.6994 263° West  Level Estimated
Sun 05:53:00 AM 71.1310 61.3097 262° West  Level Estimated
Sun 05:54:00 AM 71.1132 60.9208 262° West  Level Estimated
Sun 05:55:00 AM 71.0945 60.5325 262° West  Level Estimated
Sun 05:56:00 AM 71.0750 60.1451 261° West  Level Estimated
Sun 05:57:00 AM 71.0547 59.7584 261° West  Level Estimated
Sun 05:58:00 AM 71.0337 59.3725 261° West  Level Estimated
Sun 05:59:00 AM 71.0118 58.9874 260° West  Level Estimated
Sun 06:00:00 AM 70.9891 58.6032 260° West  Level Estimated
Sun 06:01:00 AM 70.9657 58.2200 260° West  Level Estimated
Sun 06:02:00 AM 70.9414 57.8376 259° West  Level Estimated
Sun 06:03:00 AM 70.9164 57.4562 259° West  Level Estimated
Sun 06:04:00 AM 70.8906 57.0758 258° West  Level Estimated
Sun 06:05:00 AM 70.8640 56.6964 258° West  Level Estimated
Sun 06:06:00 AM 70.8366 56.3180 258° West  Level Estimated
Sun 06:07:00 AM 70.8084 55.9406 257° West  Level Estimated
Sun 06:08:00 AM 70.7795 55.5644 257° West  Level Estimated
Sun 06:09:00 AM 70.7499 55.1892 257° West  Level Estimated
Sun 06:10:00 AM 70.7194 54.8152 256° West  Level Estimated
Sun 06:11:00 AM 70.6882 54.4423 256° West  Level Estimated
Sun 06:12:00 AM 70.6563 54.0706 256° West  Level Estimated
Sun 06:13:00 AM 70.6236 53.7000 255° West  Level Estimated
Sun 06:14:00 AM 70.5901 53.3307 255° West  Level Estimated
Sun 06:15:00 AM 70.5559 52.9627 255° West  Level Estimated
Sun 06:16:00 AM 70.5210 52.5958 254° West  Level Estimated
Sun 06:17:00 AM 70.4853 52.2303 254° West  Level Estimated
Sun 06:18:00 AM 70.4489 51.8661 254° West  Level Estimated
Sun 06:19:00 AM 70.4118 51.5031 253° West  Level Estimated
Sun 06:20:00 AM 70.3739 51.1415 253° West  Level Estimated
Sun 06:21:00 AM 70.3353 50.7813 253° West  Level Estimated
Sun 06:22:00 AM 70.2960 50.4224 252° West  Level Estimated
Sun 06:23:00 AM 70.2560 50.0649 252° West  Level Estimated
Sun 06:24:00 AM 70.2153 49.7088 251° West  Level Estimated
Sun 06:25:00 AM 70.1739 49.3541 251° West  Level Estimated
Sun 06:26:00 AM 70.1318 49.0009 251° West  Level Estimated
Sun 06:27:00 AM 70.0890 48.6491 250° West  Level Estimated
Sun 06:28:00 AM 70.0455 48.2987 250° West  Level Estimated
Sun 06:29:00 AM 70.0013 47.9498 250° West  Level Estimated
Sun 06:30:00 AM 69.9565 47.6025 250° West  Level Estimated
Sun 06:31:00 AM 69.9109 47.2566 249° West  Level Estimated
Sun 06:32:00 AM 69.8648 46.9122 249° West  Level Estimated
Sun 06:33:00 AM 69.8179 46.5693 249° West  Level Estimated
Sun 06:34:00 AM 69.7703 46.2280 248° West  Level Estimated
Sun 06:35:00 AM 69.7222 45.8882 248° West  Level Estimated
Sun 06:36:00 AM 69.6733 45.5500 248° West  Level Estimated
Sun 06:37:00 AM 69.6238 45.2133 247° West  Level Estimated
Sun 06:38:00 AM 69.5737 44.8783 247° West  Level Estimated
Sun 06:39:00 AM 69.5230 44.5448 247° West  Level Estimated
Sun 06:40:00 AM 69.4716 44.2128 246° West  Level Estimated
Sun 06:41:00 AM 69.4195 43.8825 246° West  Level Estimated
Sun 06:42:00 AM 69.3669 43.5538 246° West  Level Estimated
Sun 06:43:00 AM 69.3136 43.2267 245° Southwest  Level Estimated
Sun 06:44:00 AM 69.2597 42.9012 245° Southwest  Level Estimated
Sun 06:45:00 AM 69.2052 42.5773 245° Southwest  Level Estimated
Sun 06:45:47 AM 67.3570 41.3000 244° Southwest 454 522 34,000  Level FlightAware ADS-B
Sun 06:46:00 AM 69.1501 42.2551 244° Southwest  Level Estimated
Sun 06:46:42 AM 67.3370 41.1760 247° West 454 522 34,000  Level FlightAware ADS-B
Sun 06:47:22 AM 67.3090 41.0060 247° West 454 522 34,000  Level FlightAware ADS-B
Sun 06:48:02 AM 67.2810 40.8350 247° West 454 522 34,000  Level FlightAware ADS-B
Sun 06:48:42 AM 67.2530 40.6650 247° West 454 522 34,000  Level FlightAware ADS-B
Sun 06:49:32 AM 67.2180 40.4530 247° West 454 522 34,000  Level FlightAware ADS-B
Sun 06:50:12 AM 67.1900 40.2830 247° West 454 522 34,000  Level FlightAware ADS-B
Sun 06:50:52 AM 67.1620 40.1140 247° West 454 522 34,000  Level FlightAware ADS-B
Sun 06:51:32 AM 67.1340 39.9450 247° West 454 522 34,000  Level FlightAware ADS-B
Sun 06:52:12 AM 67.1070 39.7760 248° West 454 522 34,000  Level FlightAware ADS-B
Sun 06:53:02 AM 67.0720 39.5650 247° West 454 522 34,000  Level FlightAware ADS-B
Sun 06:53:42 AM 67.0440 39.3960 247° West 454 522 34,000  Level FlightAware ADS-B
Sun 06:54:22 AM 67.0160 39.2270 247° West 454 522 34,000  Level FlightAware ADS-B
Sun 06:55:02 AM 66.9880 39.0590 247° West 454 522 34,000  Level FlightAware ADS-B
Sun 06:55:42 AM 66.9600 38.8910 247° West 454 522 34,000  Level FlightAware ADS-B
Sun 06:58:00 AM 66.8298 38.2240 244° Southwest  Level Estimated
Sun 06:59:00 AM 66.7723 37.9362 243° Southwest  Level Estimated
Sun 07:00:00 AM 66.7143 37.6497 243° Southwest  Level Estimated
Sun 07:01:00 AM 66.6558 37.3646 243° Southwest  Level Estimated
Sun 07:02:00 AM 66.5968 37.0809 242° Southwest  Level Estimated
Sun 07:03:00 AM 66.5372 36.7985 242° Southwest  Level Estimated
Sun 07:04:00 AM 66.4772 36.5174 242° Southwest  Level Estimated
Sun 07:05:00 AM 66.4166 36.2378 242° Southwest  Level Estimated
Sun 07:06:00 AM 66.3556 35.9594 241° Southwest  Level Estimated
Sun 07:07:00 AM 66.2940 35.6825 241° Southwest  Level Estimated
Sun 07:08:00 AM 66.2320 35.4068 241° Southwest  Level Estimated
Sun 07:09:00 AM 66.1695 35.1326 241° Southwest  Level Estimated
Sun 07:10:00 AM 66.1065 34.8597 240° Southwest  Level Estimated
Sun 07:11:00 AM 66.0430 34.5882 240° Southwest  Level Estimated
Sun 07:12:00 AM 65.9790 34.3180 240° Southwest  Level Estimated
Sun 07:13:00 AM 65.9146 34.0491 240° Southwest  Level Estimated
Sun 07:14:00 AM 65.8497 33.7817 239° Southwest  Level Estimated
Sun 07:15:00 AM 65.7843 33.5155 239° Southwest  Level Estimated
Sun 07:16:00 AM 65.7185 33.2508 239° Southwest  Level Estimated
Sun 07:17:00 AM 65.6523 32.9874 239° Southwest  Level Estimated
Sun 07:18:00 AM 65.5855 32.7253 238° Southwest  Level Estimated
Sun 07:19:00 AM 65.5183 32.4646 238° Southwest  Level Estimated
Sun 07:20:00 AM 65.4507 32.2052 238° Southwest  Level Estimated
Sun 07:20:47 AM 65.3790 31.3440 238° Southwest 464 534 34,000  Level FlightAware ADS-B
Sun 07:21:22 AM 65.3440 31.2030 239° Southwest 464 534 34,000  Level FlightAware ADS-B
Sun 07:22:12 AM 65.2890 30.9840 239° Southwest 464 534 34,000  Level FlightAware ADS-B
Sun 07:22:47 AM 65.2470 30.8190 239° Southwest 465 535 34,000  Level FlightAware ADS-B
Sun 07:23:32 AM 65.1960 30.6190 239° Southwest 466 536 34,000  Level FlightAware ADS-B
Sun 07:24:32 AM 65.1310 30.3650 239° Southwest 466 536 34,000  Level FlightAware ADS-B
Sun 07:25:12 AM 65.0850 30.1910 238° Southwest 468 539 34,000  Level FlightAware ADS-B
Sun 07:26:22 AM 65.0080 29.8970 238° Southwest 471 542 34,000  Level FlightAware ADS-B
Sun 07:27:02 AM 64.9620 29.7220 238° Southwest 473 544 34,000  Level FlightAware ADS-B
Sun 07:27:47 AM 64.9010 29.5340 233° Southwest 475 547 34,000  Level FlightAware ADS-B
Sun 07:28:17 AM 64.8560 29.4170 228° Southwest 476 548 34,000  Level FlightAware ADS-B
Sun 07:28:47 AM 64.8120 29.3060 227° Southwest 474 545 34,000  Level FlightAware ADS-B
Sun 07:29:27 AM 64.7530 29.1580 227° Southwest 473 544 34,000 706 Level FlightAware ADS-B
Sun 07:30:12 AM 64.6880 28.9970 227° Southwest 479 551 35,000 1,425 Climbing FlightAware ADS-B
Sun 07:30:47 AM 64.6290 28.8490 227° Southwest 481 554 35,900 1,500 Climbing FlightAware ADS-B
Sun 07:31:32 AM 64.5590 28.6750 227° Southwest 483 556 37,000 1,412 Climbing FlightAware ADS-B
Sun 07:32:12 AM 64.4970 28.5230 227° Southwest 482 555 37,900 750 Climbing FlightAware ADS-B
Sun 07:32:52 AM 64.4360 28.3760 226° Southwest 480 552 38,000 71 Climbing FlightAware ADS-B
Sun 07:33:37 AM 64.3700 28.2150 227° Southwest 483 556 38,000  Level FlightAware ADS-B
Sun 07:34:17 AM 64.3070 28.0660 226° Southwest 484 557 38,000  Level FlightAware ADS-B
Sun 07:35:02 AM 64.2360 27.8940 227° Southwest 485 558 38,000  Level FlightAware ADS-B
Sun 07:35:42 AM 64.1730 27.7460 226° Southwest 484 557 38,000  Level FlightAware ADS-B
Sun 07:36:27 AM 64.1030 27.5820 226° Southwest 482 555 38,000  Level FlightAware ADS-B
Sun 07:37:07 AM 64.0390 27.4340 225° Southwest 480 552 38,000  Level FlightAware ADS-B
Sun 07:37:52 AM 63.9710 27.2770 225° Southwest 478 550 38,000  Level FlightAware ADS-B
Sun 07:38:32 AM 63.9090 27.1350 225° Southwest 477 549 38,000  Level FlightAware ADS-B
Sun 07:39:17 AM 63.8380 26.9730 225° Southwest 477 549 38,000  Level FlightAware ADS-B
Sun 07:39:52 AM 63.7850 26.8520 225° Southwest 475 547 38,000  Level FlightAware ADS-B
Sun 07:40:37 AM 63.7180 26.7000 225° Southwest 475 547 38,000  Level FlightAware ADS-B
Sun 07:41:22 AM 63.6500 26.5480 225° Southwest 477 549 38,000  Level FlightAware ADS-B
Sun 07:42:02 AM 63.5840 26.4030 224° Southwest 476 548 38,000  Level FlightAware ADS-B
Sun 07:42:47 AM 63.5220 26.2660 225° Southwest 478 550 38,000  Level FlightAware ADS-B
Sun 07:43:27 AM 63.4580 26.1240 225° Southwest 476 548 38,000  Level FlightAware ADS-B
Sun 07:44:07 AM 63.3930 25.9740 226° Southwest 478 550 38,000  Level FlightAware ADS-B
Sun 07:44:52 AM 63.3240 25.8180 225° Southwest 478 550 38,000  Level FlightAware ADS-B
Sun 07:45:32 AM 63.2570 25.6690 225° Southwest 478 550 38,000  Level FlightAware ADS-B
Sun 07:46:12 AM 63.1980 25.5380 225° Southwest 478 550 38,000  Level FlightAware ADS-B
Sun 07:46:57 AM 63.1270 25.3810 225° Southwest 478 550 38,000  Level FlightAware ADS-B
Sun 07:47:37 AM 63.0670 25.2480 225° Southwest 478 550 38,000  Level FlightAware ADS-B
Sun 07:48:22 AM 62.9940 25.0890 225° Southwest 479 551 38,000  Level FlightAware ADS-B
Sun 07:49:02 AM 62.9310 24.9540 224° Southwest 478 550 38,000  Level FlightAware ADS-B
Sun 07:49:42 AM 62.8700 24.8220 225° Southwest 478 550 38,000  Level FlightAware ADS-B
Sun 07:50:27 AM 62.7970 24.6660 224° Southwest 473 544 38,000  Level FlightAware ADS-B
Sun 07:51:07 AM 62.7340 24.5320 224° Southwest 473 544 38,000  Level FlightAware ADS-B
Sun 07:51:47 AM 62.6740 24.4060 224° Southwest 475 547 38,000  Level FlightAware ADS-B
Sun 07:52:32 AM 62.5990 24.2470 224° Southwest 475 547 38,000  Level FlightAware ADS-B
Sun 07:53:12 AM 62.5350 24.1150 224° Southwest 475 547 38,000  Level FlightAware ADS-B
Sun 07:53:57 AM 62.4630 23.9670 224° Southwest 473 544 38,000  Level FlightAware ADS-B
Sun 07:54:37 AM 62.3980 23.8330 224° Southwest 474 545 38,000  Level FlightAware ADS-B
Sun 07:55:22 AM 62.3280 23.6890 224° Southwest 475 547 38,000  Level FlightAware ADS-B
Sun 07:56:02 AM 62.2610 23.5550 223° Southwest 483 556 38,000  Level FlightAware ADS-B
Sun 07:56:47 AM 62.1950 23.4220 223° Southwest 481 554 38,000  Level FlightAware ADS-B
Sun 07:57:27 AM 62.1230 23.2770 223° Southwest 472 543 38,000  Level FlightAware ADS-B
Sun 07:58:07 AM 62.0590 23.1500 223° Southwest 468 539 38,000  Level FlightAware ADS-B
Sun 07:58:52 AM 61.9880 23.0090 223° Southwest 465 535 38,000  Level FlightAware ADS-B
Sun 07:59:32 AM 61.9230 22.8820 223° Southwest 467 537 38,000  Level FlightAware ADS-B
Sun 08:00:17 AM 61.8500 22.7400 223° Southwest 466 536 38,000  Level FlightAware ADS-B
Sun 08:00:57 AM 61.7860 22.6150 223° Southwest 468 539 38,000  Level FlightAware ADS-B
Sun 08:01:37 AM 61.7220 22.4920 222° Southwest 475 547 38,000  Level FlightAware ADS-B
Sun 08:02:22 AM 61.6490 22.3530 222° Southwest 477 549 38,000  Level FlightAware ADS-B
Sun 08:03:02 AM 61.5850 22.2310 222° Southwest 477 549 38,000  Level FlightAware ADS-B
Sun 08:03:42 AM 61.5170 22.1030 222° Southwest 475 547 38,000  Level FlightAware ADS-B
Sun 08:04:27 AM 61.4470 21.9710 222° Southwest 463 533 38,000  Level FlightAware ADS-B
Sun 08:05:07 AM 61.3870 21.8590 222° Southwest 460 529 38,000  Level FlightAware ADS-B
Sun 08:05:52 AM 61.3090 21.7130 222° Southwest 455 524 38,000  Level FlightAware ADS-B
Sun 08:06:32 AM 61.2480 21.6010 221° Southwest 455 524 38,000  Level FlightAware ADS-B
Sun 08:07:17 AM 61.1740 21.4650 222° Southwest 452 520 38,000  Level FlightAware ADS-B
Sun 08:07:57 AM 61.1110 21.3510 221° Southwest 449 517 38,000  Level FlightAware ADS-B
Sun 08:08:37 AM 61.0490 21.2380 221° Southwest 449 517 38,000  Level FlightAware ADS-B
Sun 08:09:17 AM 60.9860 21.1240 221° Southwest 450 518 38,000  Level FlightAware ADS-B
Sun 08:10:02 AM 60.9170 21.0010 221° Southwest 454 522 38,000  Level FlightAware ADS-B
Sun 08:10:42 AM 60.8530 20.8870 221° Southwest 458 527 38,000  Level FlightAware ADS-B
Sun 08:11:27 AM 60.7800 20.7570 221° Southwest 459 528 38,000  Level FlightAware ADS-B
Sun 08:11:57 AM 60.7320 20.6730 221° Southwest 460 529 38,000  Level FlightAware ADS-B
Sun 08:12:37 AM 60.6680 20.5600 221° Southwest 461 531 38,000  Level FlightAware ADS-B
Sun 08:13:12 AM 60.6130 20.4650 220° Southwest 465 535 38,000  Level FlightAware ADS-B
Sun 08:13:47 AM 60.5530 20.3610 220° Southwest 470 541 38,000  Level FlightAware ADS-B
Sun 08:14:22 AM 60.4970 20.2630 221° Southwest 473 544 38,000  Level FlightAware ADS-B
Sun 08:15:07 AM 60.4210 20.1320 220° Southwest 476 548 38,000  Level FlightAware ADS-B
Sun 08:15:47 AM 60.3560 20.0110 223° Southwest 468 539 38,000  Level FlightAware ADS-B
Sun 08:16:27 AM 60.2990 19.8840 228° Southwest 463 533 38,000  Level FlightAware ADS-B
Sun 08:17:12 AM 60.2360 19.7410 228° Southwest 462 532 38,000  Level FlightAware ADS-B
Sun 08:17:52 AM 60.1790 19.6120 228° Southwest 464 534 38,000  Level FlightAware ADS-B
Sun 08:18:37 AM 60.1150 19.4660 229° Southwest 461 531 38,000  Level FlightAware ADS-B
Sun 08:19:17 AM 60.0590 19.3390 229° Southwest 458 527 38,000  Level FlightAware ADS-B
Sun 08:20:02 AM 59.9970 19.2010 228° Southwest 455 524 38,000  Level FlightAware ADS-B
Sun 08:20:42 AM 59.9410 19.0760 228° Southwest 453 521 38,000  Level FlightAware ADS-B
Sun 08:21:22 AM 59.8860 18.9540 228° Southwest 453 521 38,000  Level FlightAware ADS-B
Sun 08:22:07 AM 59.8210 18.8100 228° Southwest 452 520 38,000  Level FlightAware ADS-B
Sun 08:22:47 AM 59.7650 18.6870 228° Southwest 452 520 38,000  Level FlightAware ADS-B
Sun 08:23:32 AM 59.7030 18.5520 228° Southwest 452 520 38,000  Level FlightAware ADS-B
Sun 08:24:12 AM 59.6460 18.4300 227° Southwest 452 520 38,000  Level FlightAware ADS-B
Sun 08:24:57 AM 59.5820 18.2930 227° Southwest 452 520 38,000  Level FlightAware ADS-B
Sun 08:25:37 AM 59.5260 18.1720 228° Southwest 449 517 38,000  Level FlightAware ADS-B
Sun 08:26:17 AM 59.4700 18.0530 227° Southwest 450 518 38,000  Level FlightAware ADS-B
Sun 08:27:02 AM 59.4070 17.9190 227° Southwest 451 519 38,000  Level FlightAware ADS-B
Sun 08:27:42 AM 59.3500 17.7990 227° Southwest 450 518 38,000  Level FlightAware ADS-B
Sun 08:28:22 AM 59.2930 17.6790 227° Southwest 453 521 38,000  Level FlightAware ADS-B
Sun 08:29:07 AM 59.2300 17.5470 227° Southwest 455 524 38,000  Level FlightAware ADS-B
Sun 08:29:47 AM 59.1720 17.4270 227° Southwest 456 525 38,000  Level FlightAware ADS-B
Sun 08:30:32 AM 59.1060 17.2910 227° Southwest 458 527 38,000  Level FlightAware ADS-B
Sun 08:31:12 AM 59.0460 17.1690 226° Southwest 459 528 38,000  Level FlightAware ADS-B
Sun 08:31:57 AM 58.9830 17.0410 226° Southwest 461 531 38,000  Level FlightAware ADS-B
Sun 08:32:37 AM 58.9230 16.9200 226° Southwest 463 533 38,000  Level FlightAware ADS-B
Sun 08:33:17 AM 58.8640 16.8000 226° Southwest 465 535 38,000  Level FlightAware ADS-B
Sun 08:34:02 AM 58.7960 16.6650 226° Southwest 463 533 38,000  Level FlightAware ADS-B
Sun 08:34:42 AM 58.7370 16.5460 226° Southwest 464 534 38,000  Level FlightAware ADS-B
Sun 08:35:27 AM 58.6700 16.4130 226° Southwest 463 533 38,000  Level FlightAware ADS-B
Sun 08:36:07 AM 58.6120 16.2990 226° Southwest 463 533 38,000  Level FlightAware ADS-B
Sun 08:36:47 AM 58.5520 16.1820 226° Southwest 465 535 38,000  Level FlightAware ADS-B
Sun 08:37:32 AM 58.4830 16.0460 226° Southwest 465 535 38,000  Level FlightAware ADS-B
Sun 08:38:12 AM 58.4220 15.9290 225° Southwest 463 533 38,000  Level FlightAware ADS-B
Sun 08:38:52 AM 58.3620 15.8130 225° Southwest 465 535 38,000  Level FlightAware ADS-B
Sun 08:39:37 AM 58.2950 15.6850 225° Southwest 466 536 38,000  Level FlightAware ADS-B
Sun 08:40:17 AM 58.2350 15.5700 225° Southwest 466 536 38,000  Level FlightAware ADS-B
Sun 08:40:57 AM 58.1740 15.4540 225° Southwest 466 536 38,000  Level FlightAware ADS-B
Sun 08:41:42 AM 58.1050 15.3230 225° Southwest 468 539 38,000  Level FlightAware ADS-B
Sun 08:42:27 AM 58.0380 15.1980 225° Southwest 468 539 38,000  Level FlightAware ADS-B
Sun 08:43:07 AM 57.9770 15.0830 225° Southwest 466 536 38,000  Level FlightAware ADS-B
Sun 08:43:47 AM 57.9150 14.9680 225° Southwest 468 539 38,000  Level FlightAware ADS-B
Sun 08:44:32 AM 57.8430 14.8370 224° Southwest 468 539 38,000  Level FlightAware ADS-B
Sun 08:45:12 AM 57.7820 14.7230 225° Southwest 468 539 38,000  Level FlightAware ADS-B
Sun 08:45:52 AM 57.7200 14.6100 224° Southwest 468 539 38,000  Level FlightAware ADS-B
Sun 08:46:37 AM 57.6540 14.4910 224° Southwest 470 541 38,000  Level FlightAware ADS-B
Sun 08:47:17 AM 57.5890 14.3730 224° Southwest 471 542 38,000  Level FlightAware ADS-B
Sun 08:48:02 AM 57.5190 14.2470 224° Southwest 471 542 38,000  Level FlightAware ADS-B
Sun 08:48:42 AM 57.4570 14.1360 224° Southwest 472 543 38,000  Level FlightAware ADS-B
Sun 08:49:22 AM 57.3930 14.0220 224° Southwest 472 543 38,000  Level FlightAware ADS-B
Sun 08:50:07 AM 57.3220 13.8950 224° Southwest 474 545 38,000  Level FlightAware ADS-B
Sun 08:50:47 AM 57.2590 13.7860 223° Southwest 476 548 38,000  Level FlightAware ADS-B
Sun 08:51:32 AM 57.1890 13.6620 224° Southwest 476 548 38,000  Level FlightAware ADS-B
Sun 08:52:12 AM 57.1250 13.5510 223° Southwest 473 544 38,000  Level FlightAware ADS-B
Sun 08:52:52 AM 57.0630 13.4430 223° Southwest 476 548 38,000  Level FlightAware ADS-B
Sun 08:53:37 AM 56.9890 13.3160 223° Southwest 476 548 38,000  Level FlightAware ADS-B
Sun 08:54:17 AM 56.9270 13.2090 223° Southwest 476 548 38,000  Level FlightAware ADS-B
Sun 08:54:57 AM 56.8640 13.1020 223° Southwest 477 549 38,000  Level FlightAware ADS-B
Sun 08:55:42 AM 56.7900 12.9750 223° Southwest 477 549 38,000  Level FlightAware ADS-B
Sun 08:56:22 AM 56.7250 12.8640 223° Southwest 478 550 38,000  Level FlightAware ADS-B
Sun 08:57:07 AM 56.6530 12.7330 225° Southwest 478 550 38,000  Level FlightAware ADS-B
Sun 08:57:47 AM 56.5930 12.6190 226° Southwest 479 551 38,000  Level FlightAware ADS-B
Sun 08:58:32 AM 56.5270 12.4910 227° Southwest 479 551 38,000  Level FlightAware ADS-B
Sun 08:59:12 AM 56.4650 12.3750 226° Southwest 480 552 38,000  Level FlightAware ADS-B
Sun 08:59:52 AM 56.4050 12.2600 227° Southwest 482 555 38,000  Level FlightAware ADS-B
Sun 09:00:37 AM 56.3340 12.1260 226° Southwest 483 556 38,000  Level FlightAware ADS-B
Sun 09:01:17 AM 56.2710 12.0090 226° Southwest 483 556 38,000  Level FlightAware ADS-B
Sun 09:01:52 AM 56.2180 11.9110 226° Southwest 485 558 38,000  Level FlightAware ADS-B
Sun 09:02:42 AM 56.1420 11.7700 226° Southwest 487 560 38,000  Level FlightAware ADS-B
Sun 09:03:22 AM 56.0790 11.6530 226° Southwest 487 560 38,000  Level FlightAware ADS-B
Sun 09:04:07 AM 56.0070 11.5220 226° Southwest 487 560 38,000  Level FlightAware ADS-B
Sun 09:04:47 AM 55.9450 11.4100 225° Southwest 487 560 38,000  Level FlightAware ADS-B
Sun 09:05:27 AM 55.8840 11.2980 226° Southwest 487 560 38,000  Level FlightAware ADS-B
Sun 09:06:12 AM 55.8110 11.1680 225° Southwest 482 555 38,000  Level FlightAware ADS-B
Sun 09:06:52 AM 55.7470 11.0510 226° Southwest 481 554 38,000  Level FlightAware ADS-B
Sun 09:07:37 AM 55.6740 10.9230 225° Southwest 481 554 38,000  Level FlightAware ADS-B
Sun 09:08:17 AM 55.6110 10.8110 225° Southwest 482 555 38,000  Level FlightAware ADS-B
Sun 09:09:02 AM 55.5390 10.6830 225° Southwest 483 556 38,000  Level FlightAware ADS-B
Sun 09:09:42 AM 55.4760 10.5730 225° Southwest 483 556 38,000  Level FlightAware ADS-B
Sun 09:10:27 AM 55.4040 10.4470 225° Southwest 483 556 38,000  Level FlightAware ADS-B
Sun 09:11:07 AM 55.3400 10.3350 225° Southwest 481 554 38,000  Level FlightAware ADS-B
Sun 09:11:47 AM 55.2760 10.2260 224° Southwest 481 554 38,000  Level FlightAware ADS-B
Sun 09:12:32 AM 55.2040 10.1010 225° Southwest 481 554 38,000  Level FlightAware ADS-B
Sun 09:13:07 AM 55.1480 10.0050 224° Southwest 482 555 38,000  Level FlightAware ADS-B
Sun 09:13:52 AM 55.0750 9.8810 224° Southwest 490 564 38,000  Level FlightAware ADS-B
Sun 09:14:32 AM 55.0100 9.7720 224° Southwest 490 564 38,000  Level FlightAware ADS-B
Sun 09:15:17 AM 54.9360 9.6470 224° Southwest 490 564 38,000  Level FlightAware ADS-B
Sun 09:15:57 AM 54.8730 9.5400 224° Southwest 490 564 38,000  Level FlightAware ADS-B
Sun 09:16:37 AM 54.8070 9.4310 224° Southwest 490 564 38,000  Level FlightAware ADS-B
Sun 09:17:22 AM 54.7320 9.3110 223° Southwest 490 564 38,000  Level FlightAware ADS-B
Sun 09:18:02 AM 54.6650 9.2100 221° Southwest 490 564 38,000  Level FlightAware ADS-B
Sun 09:18:42 AM 54.5960 9.1080 221° Southwest 490 564 38,000  Level FlightAware ADS-B
Sun 09:19:27 AM 54.5190 8.9950 220° Southwest 490 564 38,000  Level FlightAware ADS-B
Sun 09:20:07 AM 54.4460 8.8880 220° Southwest 490 564 38,000  Level FlightAware ADS-B
Sun 09:20:52 AM 54.3680 8.7760 220° Southwest 491 565 38,000  Level FlightAware ADS-B
Sun 09:21:32 AM 54.3010 8.6780 220° Southwest 491 565 38,000  Level FlightAware ADS-B
Sun 09:22:12 AM 54.2330 8.5800 220° Southwest 492 566 38,000  Level FlightAware ADS-B
Sun 09:22:47 AM 54.1720 8.4920 220° Southwest 491 565 38,000  Level FlightAware ADS-B
Sun 09:23:32 AM 54.0900 8.3750 220° Southwest 491 565 38,000  Level FlightAware ADS-B
Sun 09:24:12 AM 54.0240 8.2810 220° Southwest 490 564 38,000  Level FlightAware ADS-B
Sun 09:24:57 AM 53.9460 8.1690 220° Southwest 489 563 38,000  Level FlightAware ADS-B
Sun 09:25:37 AM 53.8750 8.0700 219° Southwest 489 563 38,000  Level FlightAware ADS-B
Sun 09:26:17 AM 53.8060 7.9720 220° Southwest 490 564 38,000  Level FlightAware ADS-B
Sun 09:27:02 AM 53.7280 7.8630 220° Southwest 490 564 38,000  Level FlightAware ADS-B
Sun 09:27:42 AM 53.6580 7.7650 220° Southwest 491 565 38,000  Level FlightAware ADS-B
Sun 09:28:22 AM 53.5900 7.6710 219° Southwest 491 565 38,000  Level FlightAware ADS-B
Sun 09:29:07 AM 53.5080 7.5600 219° Southwest 490 564 38,000  Level FlightAware ADS-B
Sun 09:29:47 AM 53.4350 7.4710 216° Southwest 490 564 38,000  Level FlightAware ADS-B
Sun 09:30:32 AM 53.3530 7.3770 214° Southwest 490 564 38,000  Level FlightAware ADS-B
Sun 09:31:12 AM 53.2800 7.2970 213° Southwest 489 563 38,000  Level FlightAware ADS-B
Sun 09:31:57 AM 53.1990 7.2080 213° Southwest 489 563 38,000  Level FlightAware ADS-B
Sun 09:32:37 AM 53.1200 7.1220 213° Southwest 489 563 38,000  Level FlightAware ADS-B
Sun 09:33:17 AM 53.0480 7.0430 213° Southwest 489 563 38,000  Level FlightAware ADS-B
Sun 09:33:52 AM 52.9760 6.9650 213° Southwest 489 563 38,000 -1,600 Level FlightAware ADS-B
Sun 09:34:17 AM 52.9227 6.9069 213° Southwest 1 1 36,400  Descending FlightAware UK
Sun 09:34:37 AM 52.8920 6.8740 213° Southwest 491 565 38,000 1,600 Climbing FlightAware ADS-B
Sun 09:35:17 AM 52.8110 6.7860 213° Southwest 493 567 38,000  Level FlightAware ADS-B
Sun 09:35:57 AM 52.7430 6.7130 213° Southwest 493 567 38,000  Level FlightAware ADS-B
Sun 09:36:42 AM 52.6500 6.6140 213° Southwest 491 565 38,000  Level FlightAware ADS-B
Sun 09:37:22 AM 52.5770 6.5350 213° Southwest 488 562 38,000  Level FlightAware ADS-B
Sun 09:38:07 AM 52.4910 6.4440 213° Southwest 487 560 38,000  Level FlightAware ADS-B
Sun 09:38:47 AM 52.4160 6.3640 213° Southwest 485 558 38,000  Level FlightAware ADS-B
Sun 09:39:27 AM 52.3420 6.2870 212° Southwest 484 557 38,000  Level FlightAware ADS-B
Sun 09:40:07 AM 52.2650 6.2060 213° Southwest 482 555 38,000 -300 Level FlightAware ADS-B
Sun 09:40:47 AM 52.1910 6.1290 213° Southwest 478 550 37,600 -750 Descending FlightAware ADS-B
Sun 09:41:27 AM 52.1160 6.0500 213° Southwest 492 566 37,000 -450 Descending FlightAware ADS-B
Sun 09:42:07 AM 52.0350 5.9670 212° Southwest 489 563 37,000  Level FlightAware ADS-B
Sun 09:42:42 AM 51.9720 5.9010 213° Southwest 487 560 37,000  Level FlightAware ADS-B
Sun 09:43:22 AM 51.8960 5.8240 212° Southwest 487 560 37,000 -1,477 Level FlightAware ADS-B
Sun 09:43:47 AM 51.8398 5.7672 212° Southwest 472 543 35,400 -2,093 Descending FlightAware UK
Sun 09:44:05 AM 51.8065 5.7328 213° Southwest 470 541 35,500 4,800 Climbing FlightAware UK
Sun 09:44:07 AM 51.8110 5.7360 213° Southwest 487 560 37,000  Climbing FlightAware ADS-B
Sun 09:44:23 AM 51.7737 5.6988 213° Southwest 470 541 35,500 -2,824 Descending FlightAware UK
Sun 09:44:41 AM 51.7385 5.6630 212° Southwest 470 541 35,400 3,750 Descending FlightAware UK
Sun 09:44:47 AM 51.7350 5.6580 212° Southwest 489 563 37,000 250 Climbing FlightAware ADS-B
Sun 09:45:05 AM 51.6955 5.6187 212° Southwest 470 541 35,500  Descending FlightAware UK
Sun 09:45:27 AM 51.6580 5.5800 212° Southwest 490 564 37,000  Climbing FlightAware ADS-B
Sun 09:45:59 AM 51.5917 5.5136 212° Southwest 472 543 35,500  Descending FlightAware UK
Sun 09:46:12 AM 51.5730 5.4940 212° Southwest 491 565 37,000  Climbing FlightAware ADS-B
Sun 09:46:41 AM 51.5104 5.4319 212° Southwest 474 545 35,500  Descending FlightAware UK
Sun 09:46:52 AM 51.4930 5.4140 212° Southwest 490 564 37,000  Climbing FlightAware ADS-B
Sun 09:47:23 AM 51.4299 5.3511 212° Southwest 476 548 35,500  Descending FlightAware UK
Sun 09:47:32 AM 51.4210 5.3410 212° Southwest 488 562 37,000 1,667 Climbing FlightAware ADS-B
Sun 09:48:17 AM 51.3330 5.2540 212° Southwest 485 558 37,000 -1,429 Level FlightAware ADS-B
Sun 09:48:35 AM 51.2928 5.2147 212° Southwest 474 545 35,500  Descending FlightAware UK
Sun 09:48:57 AM 51.2550 5.1760 212° Southwest 484 557 37,000  Climbing FlightAware ADS-B
Sun 09:49:17 AM 51.2124 5.1345 212° Southwest 472 543 35,500 -2,526 Descending FlightAware UK
Sun 09:49:35 AM 51.1786 5.1011 212° Southwest 472 543 35,400 3,600 Descending FlightAware UK
Sun 09:49:42 AM 51.1680 5.0900 212° Southwest 482 555 37,000 250 Climbing FlightAware ADS-B
Sun 09:49:59 AM 51.1332 5.0560 212° Southwest 472 543 35,500 -2,571 Descending FlightAware UK
Sun 09:50:17 AM 51.0996 5.0229 212° Southwest 472 543 35,500 5,000 Level FlightAware UK
Sun 09:50:17 AM 51.1110 5.0340 212° Southwest 482 555 37,000 1,800 Climbing FlightAware ADS-B
Sun 09:50:57 AM 51.0350 4.9590 212° Southwest 482 555 36,700 -1,624 Descending FlightAware ADS-B
Sun 09:51:42 AM 50.9440 4.8700 212° Southwest 496 571 34,700 -2,329 Descending FlightAware ADS-B
Sun 09:52:22 AM 50.8650 4.7930 212° Southwest 498 573 33,400 -1,800 Descending FlightAware ADS-B
Sun 09:53:02 AM 50.7860 4.7170 211° Southwest 504 580 32,300 -1,360 Descending FlightAware ADS-B
Sun 09:53:37 AM 50.7140 4.6470 212° Southwest 505 581 31,700 -1,175 Descending FlightAware ADS-B
Sun 09:54:08 AM 50.6485 4.5834 212° Southwest 30,900 -1,258 Descending FlightAware ADS-B
Sun 09:54:39 AM 50.5872 4.5244 211° Southwest 509 586 30,400 -1,151 Descending FlightAware ADS-B
Sun 09:55:21 AM 50.5031 4.4441 211° Southwest 504 580 29,500 -2,432 Descending FlightAware ADS-B
Sun 09:55:53 AM 50.4391 4.3841 211° Southwest 1 1 27,400 -3,480 Descending FlightAware UK
Sun 09:56:11 AM 50.4014 4.3441 214° Southwest 1 1 26,600 706 Descending FlightAware UK
Sun 09:56:27 AM 50.3840 4.3310 214° Southwest 488 562 27,800 -2,167 Climbing FlightAware ADS-B
Sun 09:56:47 AM 50.3345 4.2837 214° Southwest 1 1 25,300 -2,100 Descending FlightAware UK
Sun 09:57:07 AM 50.3060 4.2560 214° Southwest 465 535 26,400 -1,429 Climbing FlightAware ADS-B
Sun 09:57:29 AM 50.2558 4.2088 214° Southwest 1 1 24,300 -800 Descending FlightAware UK
Sun 09:57:37 AM 50.2456 4.1996 214° Southwest 438 504 26,000 167 Climbing FlightAware ADS-B
Sun 09:58:05 AM 50.1959 4.1516 214° Southwest 1 1 24,400  Descending FlightAware UK
Sun 09:58:17 AM 50.1791 4.1377 214° Southwest 424 488 26,000 3,840 Climbing FlightAware ADS-B
Sun 09:58:30 AM 50.1559 4.1216 204° Southwest 415 478 26,000  Level FlightAware ADS-B
Sun 09:58:35 AM 50.1469 4.1168 199° South 411 473 26,000  Level FlightAware ADS-B
Sun 09:59:00 AM 50.1000 4.1047 189° South 400 460 26,000 -2,000 Level FlightAware ADS-B
Sun 09:59:23 AM 50.0571 4.1008 189° South 1 1 24,400 -1,105 Descending FlightAware UK
Sun 09:59:38 AM 50.0307 4.0990 189° South 397 457 25,300 -133 Climbing FlightAware ADS-B
Sun 10:00:08 AM 49.9758 4.0952 183° South 393 452 24,300 -4,000 Descending FlightAware ADS-B
Sun 10:00:23 AM 49.9522 4.0984 183° South 1 1 22,300 -1,765 Descending FlightAware UK
Sun 10:00:42 AM 49.9148 4.0904 183° South 384 442 23,300 118 Climbing FlightAware ADS-B
Sun 10:01:14 AM 49.8587 4.0862 183° South 379 436 22,400 -1,688 Descending FlightAware ADS-B
Sun 10:01:46 AM 49.8040 4.0823 183° South 372 428 21,500 -1,662 Descending FlightAware ADS-B
Sun 10:02:19 AM 49.7481 4.0783 183° South 361 415 20,600 -1,714 Descending FlightAware ADS-B
Sun 10:02:49 AM 49.6973 4.0745 183° South 356 410 19,700 -1,909 Descending FlightAware ADS-B
Sun 10:03:03 AM 49.6758 4.0718 185° South 354 407 19,200 -2,250 Descending FlightAware ADS-B
Sun 10:03:21 AM 49.6477 4.0587 197° South 358 412 18,500 -2,500 Descending FlightAware ADS-B
Sun 10:03:27 AM 49.6389 4.0514 208° Southwest 360 414 18,200 -2,348 Descending FlightAware ADS-B
Sun 10:03:44 AM 49.6168 4.0234 219° Southwest 362 417 17,600 -2,222 Descending FlightAware ADS-B
Sun 10:03:54 AM 49.6061 4.0017 233° Southwest 363 418 17,200 -2,286 Descending FlightAware ADS-B
Sun 10:04:26 AM 49.5772 3.9337 237° Southwest 358 412 16,000 -2,063 Descending FlightAware ADS-B
Sun 10:04:58 AM 49.5496 3.8667 238° Southwest 345 397 15,000 -1,905 Descending FlightAware ADS-B
Sun 10:05:29 AM 49.5233 3.8036 237° Southwest 337 388 14,000 -1,742 Descending FlightAware ADS-B
Sun 10:06:00 AM 49.4974 3.7425 237° Southwest 332 382 13,200 -984 Descending FlightAware ADS-B
Sun 10:06:30 AM 49.4718 3.6827 237° Southwest 329 379 13,000 -235 Descending FlightAware ADS-B
Sun 10:06:51 AM 49.4546 3.6423 237° Southwest 328 377 13,000  Level FlightAware ADS-B
Sun 10:07:02 AM 49.4437 3.6215 231° Southwest 327 376 13,000  Level FlightAware ADS-B
Sun 10:07:33 AM 49.4122 3.5703 227° Southwest 327 376 13,000  Level FlightAware ADS-B
Sun 10:08:04 AM 49.3816 3.5211 226° Southwest 299 344 13,000 -689 Level FlightAware ADS-B
Sun 10:08:34 AM 49.3537 3.4760 226° Southwest 290 334 12,300 -1,469 Descending FlightAware ADS-B
Sun 10:08:53 AM 49.3338 3.4506 220° Southwest 284 327 11,800 -1,731 Descending FlightAware ADS-B
Sun 10:09:26 AM 49.2991 3.4127 215° Southwest 281 323 10,800 -1,831 Descending FlightAware ADS-B
Sun 10:09:52 AM 49.2715 3.3831 215° Southwest 286 329 10,000 -1,756 Descending FlightAware ADS-B
Sun 10:10:07 AM 49.2553 3.3656 215° Southwest 284 327 9,600 -1,688 Descending FlightAware ADS-B
Sun 10:10:24 AM 49.2370 3.3460 215° Southwest 280 322 9,100 -1,636 Descending FlightAware ADS-B
Sun 10:10:40 AM 49.2206 3.3284 215° Southwest 277 319 8,700 -1,742 Descending FlightAware ADS-B
Sun 10:10:55 AM 49.2045 3.3112 215° Southwest 276 318 8,200 -1,742 Descending FlightAware ADS-B
Sun 10:11:11 AM 49.1878 3.2937 215° Southwest 274 315 7,800 -1,688 Descending FlightAware ADS-B
Sun 10:11:27 AM 49.1710 3.2762 214° Southwest 273 314 7,300 -1,935 Descending FlightAware ADS-B
Sun 10:11:42 AM 49.1553 3.2598 214° Southwest 274 315 6,800 -1,688 Descending FlightAware ADS-B
Sun 10:11:59 AM 49.1389 3.2379 221° Southwest 274 315 6,400 -1,269 Descending FlightAware ADS-B
Sun 10:12:34 AM 49.1080 3.1919 224° Southwest 267 307 5,700 -1,200 Descending FlightAware ADS-B
Sun 10:12:49 AM 49.0945 3.1718 224° Southwest 265 305 5,400 -1,355 Descending FlightAware ADS-B
Sun 10:13:05 AM 49.0804 3.1511 224° Southwest 264 304 5,000 -1,500 Descending FlightAware ADS-B
Sun 10:13:13 AM 49.0743 3.1411 227° Southwest 263 303 4,800 -1,364 Descending FlightAware ADS-B
Sun 10:13:27 AM 49.0642 3.1193 235° Southwest 257 296 4,500 -1,400 Descending FlightAware ADS-B
Sun 10:13:43 AM 49.0551 3.0964 239° Southwest 243 280 4,100 -1,125 Descending FlightAware ADS-B
Sun 10:13:59 AM 49.0458 3.0727 239° Southwest 234 269 3,900 -581 Descending FlightAware ADS-B
Sun 10:14:14 AM 49.0374 3.0512 239° Southwest 230 265 3,800 -387 Descending FlightAware ADS-B
Sun 10:14:30 AM 49.0290 3.0298 239° Southwest 238 274 3,700  Descending FlightAware ADS-B
Sun 10:14:44 AM 49.0209 3.0091 239° Southwest 233 268 3,800 333 Climbing FlightAware ADS-B
Sun 10:14:48 AM 49.0189 3.0029 244° Southwest 233 268 3,800  Level FlightAware ADS-B
Sun 10:14:52 AM 49.0175 2.9977 248° West 232 267 3,800  Level FlightAware ADS-B
Sun 10:14:58 AM 49.0157 2.9886 253° West 232 267 3,800  Level FlightAware ADS-B
Sun 10:15:03 AM 49.0146 2.9805 258° West 231 266 3,800  Level FlightAware ADS-B
Sun 10:15:13 AM 49.0135 2.9635 264° West 227 261 3,800  Level FlightAware ADS-B
Sun 10:15:25 AM 49.0128 2.9453 267° West 224 258 3,800  Level FlightAware ADS-B
Sun 10:15:41 AM 49.0115 2.9207 265° West 223 257 3,800  Level FlightAware ADS-B
Sun 10:15:56 AM 49.0103 2.8979 265° West 207 238 3,800 -400 Level FlightAware ADS-B
Sun 10:16:11 AM 49.0091 2.8762 265° West 201 231 3,600 -857 Descending FlightAware ADS-B
Sun 10:16:24 AM 49.0082 2.8593 265° West 198 228 3,400 -1,071 Descending FlightAware ADS-B
Sun 10:16:39 AM 49.0071 2.8374 266° West 198 228 3,100 -1,125 Descending FlightAware ADS-B
Sun 10:16:56 AM 49.0059 2.8146 265° West 195 224 2,800 -1,034 Descending FlightAware ADS-B
Sun 10:17:08 AM 49.0051 2.7978 266° West 194 223 2,600 -1,071 Descending FlightAware ADS-B
Sun 10:17:24 AM 49.0040 2.7771 265° West 189 217 2,300 -909 Descending FlightAware ADS-B
Sun 10:17:41 AM 49.0029 2.7551 266° West 184 212 2,100 -909 Descending FlightAware ADS-B
Sun 10:17:57 AM 49.0017 2.7332 265° West 186 214 1,800 -1,000 Descending FlightAware ADS-B
Sun 10:18:17 AM 49.0005 2.7092 266° West 174 200 1,500 -1,000 Descending FlightAware ADS-B
Sun 10:18:33 AM 48.9995 2.6909 265° West 163 188 1,200 -923 Descending FlightAware ADS-B
Sun 10:18:43 AM 48.9989 2.6796 265° West 154 177 1,100 -522 Descending FlightAware ADS-B
Sun 10:18:56 AM 48.9982 2.6660 266° West 147 169 1,000 -923 Descending FlightAware ADS-B
Sun 10:19:09 AM 48.9975 2.6525 265° West 146 168 700 -1,034 Descending FlightAware ADS-B
Sun 10:19:25 AM 48.9966 2.6364 265° West 144 166 500 -581 Descending FlightAware ADS-B
Sun 10:19:40 AM 48.9959 2.6212 266° West 144 166 400 -571 Descending FlightAware ADS-B
Sun 10:19:46 AM 48.9955 2.6144 265° West 145 167 300 -923 Descending FlightAware ADS-B
Sun 10:19:53 AM 48.9952 2.6082 266° West 146 168 200 -857 Descending FlightAware ADS-B

Login

Don't have an account? Register now (free) for customized features, flight alerts, and more!